Time;durP1;ratioP1;P1;durP2;ratioP2;P2;SDS_P1;SDS_P2;PMS_P1;PMS_P2;Temp;Humidity;BMP_temperature;BMP_pressure;BME280_temperature;BME280_humidity;BME280_pressure;Samples;Min_cycle;Max_cycle;Signal;HPM_P1;HPM_P2
2022/08/16 00:00:42;;;;;;;1999.90;999.90;;;;;;;20.08;100.00;94690.69;5118138;28;20183;-59
2022/08/16 00:03:08;;;;;;;1999.90;999.90;;;;;;;20.03;100.00;94679.53;5118065;28;20179;-58
2022/08/16 00:05:34;;;;;;;1999.90;999.90;;;;;;;20.03;100.00;94676.75;5118051;28;20266;-58
2022/08/16 00:07:59;;;;;;;1999.90;999.90;;;;;;;19.93;100.00;94659.47;5118095;28;20220;-58
2022/08/16 00:10:27;;;;;;;1999.90;999.90;;;;;;;19.84;100.00;94656.78;5117835;28;20207;-58
2022/08/16 00:12:53;;;;;;;1999.90;999.90;;;;;;;19.86;100.00;94659.88;5117996;28;20187;-63
2022/08/16 00:15:33;;;;;;;1999.90;999.90;;;;;;;19.85;100.00;94658.31;5118186;28;20191;-60
2022/08/16 00:17:58;;;;;;;1999.90;999.90;;;;;;;19.90;100.00;94665.97;5118286;28;20179;-59
2022/08/16 00:20:24;;;;;;;1999.90;999.90;;;;;;;19.91;100.00;94653.63;5116528;28;20193;-60
2022/08/16 00:22:50;;;;;;;1999.90;999.90;;;;;;;19.86;100.00;94642.47;5117986;28;20183;-59
2022/08/16 00:25:17;;;;;;;1999.90;999.90;;;;;;;19.84;100.00;94651.25;5117983;28;20194;-61
2022/08/16 00:27:43;;;;;;;1999.90;999.90;;;;;;;19.83;100.00;94646.97;5117798;28;20179;-59
2022/08/16 00:30:11;;;;;;;1999.90;999.90;;;;;;;19.67;100.00;94641.94;5117721;28;20230;-70
2022/08/16 00:32:39;;;;;;;1999.90;999.90;;;;;;;19.65;100.00;94636.09;5117871;28;20187;-64
2022/08/16 00:35:07;;;;;;;1999.90;999.90;;;;;;;19.70;100.00;94629.88;5117208;28;20190;-64
2022/08/16 00:37:33;;;;;;;1999.90;999.90;;;;;;;19.73;100.00;94634.44;5117887;28;20225;-65
2022/08/16 00:39:58;;;;;;;1999.90;999.90;;;;;;;19.73;100.00;94630.94;5118230;28;20183;-64
2022/08/16 00:42:26;;;;;;;1999.90;999.90;;;;;;;19.76;100.00;94632.72;5117668;28;20215;-65
2022/08/16 00:44:55;;;;;;;1999.90;999.90;;;;;;;19.75;100.00;94637.53;5117929;28;20186;-63
2022/08/16 00:47:23;;;;;;;1999.90;999.90;;;;;;;19.75;100.00;94637.53;5117547;28;20187;-70
2022/08/16 00:49:48;;;;;;;1999.90;999.90;;;;;;;19.74;100.00;94632.47;5117536;28;20171;-58
2022/08/16 00:52:14;;;;;;;1999.90;999.90;;;;;;;19.69;100.00;94639.44;5117473;28;20239;-59
2022/08/16 00:54:39;;;;;;;1999.90;999.90;;;;;;;19.71;100.00;94636.97;5117144;28;20231;-59
2022/08/16 00:57:06;;;;;;;1999.90;999.90;;;;;;;19.68;100.00;94637.91;5116856;28;20198;-59
2022/08/16 00:59:36;;;;;;;1999.90;999.90;;;;;;;19.70;100.00;94637.44;5117179;28;20171;-58
2022/08/16 01:02:05;;;;;;;1999.90;999.90;;;;;;;19.70;100.00;94624.31;5117321;28;20190;-60
2022/08/16 01:04:31;;;;;;;1999.90;999.90;;;;;;;19.73;100.00;94622.63;5116559;28;20193;-59
2022/08/16 01:06:59;;;;;;;1999.90;999.90;;;;;;;19.74;100.00;94630.44;5117358;28;20183;-71
2022/08/16 01:09:25;;;;;;;1999.90;999.90;;;;;;;19.66;100.00;94626.53;5116817;28;20297;-57
2022/08/16 01:11:51;;;;;;;1999.90;999.90;;;;;;;19.67;100.00;94622.53;5117102;28;20297;-57
2022/08/16 01:14:26;;;;;;;1999.90;999.90;;;;;;;19.67;100.00;94630.06;5116988;28;20182;-58
2022/08/16 01:16:53;;;;;;;1999.90;999.90;;;;;;;19.66;100.00;94625.78;5117529;28;20190;-58
2022/08/16 01:19:42;;;;;;;1999.90;999.90;;;;;;;19.63;100.00;94621.94;5116959;28;20183;-58
2022/08/16 01:22:23;;;;;;;1999.90;999.90;;;;;;;19.67;100.00;94619.78;5117473;28;20187;-57
2022/08/16 01:24:57;;;;;;;1999.90;999.90;;;;;;;19.66;100.00;94612.69;5117023;28;20284;-63
2022/08/16 01:27:45;;;;;;;1999.90;999.90;;;;;;;19.63;100.00;94619.19;5135060;28;20210;-71
2022/08/16 01:30:19;;;;;;;1999.90;999.90;;;;;;;19.61;100.00;94621.69;5116635;28;20206;-70
2022/08/16 01:32:45;;;;;;;1999.90;999.90;;;;;;;19.59;100.00;94624.16;5116725;28;20187;-69
2022/08/16 01:35:18;;;;;;;1999.90;999.90;;;;;;;19.57;100.00;94615.56;5116714;28;20191;-70
2022/08/16 01:37:47;;;;;;;1999.90;999.90;;;;;;;19.58;100.00;94625.41;5116632;28;20541;-68
2022/08/16 01:40:15;;;;;;;1999.90;999.90;;;;;;;19.64;100.00;94620.72;5116453;28;20189;-69
2022/08/16 01:42:43;;;;;;;1999.90;999.90;;;;;;;19.67;100.00;94617.00;5112855;28;20204;-61
2022/08/16 01:45:08;;;;;;;1999.90;999.90;;;;;;;19.65;100.00;94625.00;5096087;28;20196;-59
2022/08/16 01:47:36;;;;;;;1999.90;999.90;;;;;;;19.68;100.00;94621.28;5096469;28;20198;-59
2022/08/16 01:50:04;;;;;;;1999.90;999.90;;;;;;;19.68;100.00;94621.28;5096490;28;20245;-59
2022/08/16 01:52:30;;;;;;;1999.90;999.90;;;;;;;19.67;100.00;94619.78;5095913;28;20187;-59
2022/08/16 01:54:56;;;;;;;1999.90;999.90;;;;;;;19.66;100.00;94618.22;5095942;28;20188;-59
2022/08/16 01:57:22;;;;;;;1999.90;999.90;;;;;;;19.68;100.00;94615.75;5095731;28;20214;-60
2022/08/16 01:59:47;;;;;;;1999.90;999.90;;;;;;;19.71;100.00;94614.78;5095974;28;20215;-59
2022/08/16 02:02:13;;;;;;;1999.90;999.90;;;;;;;19.73;100.00;94611.53;5096434;28;20237;-59
2022/08/16 02:04:38;;;;;;;1999.90;999.90;;;;;;;19.71;100.00;94617.56;5096007;28;20263;-59
2022/08/16 02:07:07;;;;;;;1999.90;999.90;;;;;;;19.71;100.00;94602.94;5096634;28;20180;-58
2022/08/16 02:09:36;;;;;;;1999.90;999.90;;;;;;;19.71;100.00;94603.72;5095550;28;20203;-58
2022/08/16 02:12:02;;;;;;;1999.90;999.90;;;;;;;19.69;100.00;94594.31;5095877;28;20204;-58
2022/08/16 02:14:29;;;;;;;1999.90;999.90;;;;;;;19.63;100.00;94593.50;5095671;28;20198;-58
2022/08/16 02:16:56;;;;;;;1999.90;999.90;;;;;;;19.63;100.00;94605.31;5096585;28;20248;-58
2022/08/16 02:19:26;;;;;;;1999.90;999.90;;;;;;;19.59;100.00;94602.00;5095907;28;20186;-59
2022/08/16 02:21:53;;;;;;;1999.90;999.90;;;;;;;19.58;100.00;94594.94;5113607;28;20188;-59
2022/08/16 02:24:20;;;;;;;1999.90;999.90;;;;;;;19.56;100.00;94602.19;5096125;28;20200;-59
2022/08/16 02:26:45;;;;;;;1999.90;999.90;;;;;;;19.49;100.00;94597.81;5095729;28;20191;-59
2022/08/16 02:29:11;;;;;;;1999.90;999.90;;;;;;;19.44;100.00;94604.78;5096005;28;20198;-58
2022/08/16 02:31:36;;;;;;;1999.90;999.90;;;;;;;19.41;100.00;94602.97;5095844;28;20211;-59
2022/08/16 02:34:02;;;;;;;1999.90;999.90;;;;;;;19.39;100.00;94593.63;5113961;28;20182;-59
2022/08/16 02:36:27;;;;;;;1999.90;999.90;;;;;;;19.30;100.00;94586.19;5095510;28;20183;-59
2022/08/16 02:38:53;;;;;;;1999.90;999.90;;;;;;;19.21;100.00;94571.66;5095598;28;20196;-58
2022/08/16 02:41:19;;;;;;;1999.90;999.90;;;;;;;19.15;100.00;94565.25;5095750;28;20184;-61
2022/08/16 02:43:44;;;;;;;1999.90;999.90;;;;;;;19.08;100.00;94557.31;5096810;28;20190;-61
2022/08/16 02:46:10;;;;;;;1999.90;999.90;;;;;;;19.00;100.00;94545.13;5099392;28;20198;-60
2022/08/16 02:48:37;;;;;;;1999.90;999.90;;;;;;;18.94;100.00;94547.81;5099213;28;20241;-61
2022/08/16 02:51:04;;;;;;;1999.90;999.90;;;;;;;18.87;100.00;94545.41;5099315;28;20218;-61
2022/08/16 02:53:31;;;;;;;1999.90;999.90;;;;;;;18.81;100.00;94544.56;5099444;28;20183;-61
2022/08/16 02:55:56;;;;;;;1999.90;999.90;;;;;;;18.79;100.00;94540.72;5099113;28;20321;-59
2022/08/16 02:58:22;;;;;;;1999.90;999.90;;;;;;;18.75;100.00;94545.69;5098849;28;20275;-59
2022/08/16 03:00:48;;;;;;;1999.90;999.90;;;;;;;18.67;100.00;94539.00;5098531;28;20188;-69
2022/08/16 03:03:13;;;;;;;1999.90;999.90;;;;;;;18.62;100.00;94532.13;5099508;28;20264;-69
2022/08/16 03:05:40;;;;;;;1999.90;999.90;;;;;;;18.58;100.00;94536.34;5099169;28;20221;-70
2022/08/16 03:08:05;;;;;;;1999.90;999.90;;;;;;;18.52;100.00;94527.19;5098655;28;20285;-68
2022/08/16 03:10:30;;;;;;;1999.90;999.90;;;;;;;18.45;100.00;94516.50;5098566;28;20305;-69
2022/08/16 03:12:56;;;;;;;1999.90;999.90;;;;;;;18.36;100.00;94509.03;5098705;28;20176;-69
2022/08/16 03:15:21;;;;;;;1999.90;999.90;;;;;;;18.32;100.00;94502.16;5098495;28;20274;-70
2022/08/16 03:17:47;;;;;;;1999.90;999.90;;;;;;;18.24;100.00;94489.91;5098436;28;20188;-69
2022/08/16 03:20:15;;;;;;;1999.90;999.90;;;;;;;18.25;100.00;94480.41;5098395;28;20195;-68
2022/08/16 03:22:40;;;;;;;1999.90;999.90;;;;;;;18.23;100.00;94491.16;5116359;28;20183;-69
2022/08/16 03:25:11;;;;;;;1999.90;999.90;;;;;;;18.16;100.00;94494.28;5098389;28;20184;-68
2022/08/16 03:27:38;;;;;;;1999.90;999.90;;;;;;;18.10;100.00;94487.91;5098843;28;20184;-69
2022/08/16 03:30:11;;;;;;;1999.90;999.90;;;;;;;18.05;100.00;94485.78;5098202;28;20191;-69
2022/08/16 03:32:36;;;;;;;1999.90;999.90;;;;;;;18.01;100.00;94482.44;5098781;28;20191;-69
2022/08/16 03:35:01;;;;;;;1999.90;999.90;;;;;;;17.97;100.00;94481.88;5098130;28;20241;-59
2022/08/16 03:37:27;;;;;;;1999.90;999.90;;;;;;;17.96;100.00;94480.34;5098147;28;20188;-59
2022/08/16 03:39:52;;;;;;;1999.90;999.90;;;;;;;17.87;100.00;94466.59;5098554;28;20221;-58
2022/08/16 03:42:18;;;;;;;1999.90;999.90;;;;;;;17.78;100.00;94461.16;5098168;28;20229;-58
2022/08/16 03:44:43;;;;;;;1999.90;999.90;;;;;;;17.68;100.00;94456.94;5098648;28;20179;-59
2022/08/16 03:47:08;;;;;;;1999.90;999.90;;;;;;;17.58;100.00;94442.41;5097637;28;20191;-58
2022/08/16 03:49:35;;;;;;;1999.90;999.90;;;;;;;17.49;100.00;94427.91;5098112;28;20192;-58
2022/08/16 03:52:01;;;;;;;1999.90;999.90;;;;;;;17.46;100.00;94412.28;5097921;28;20222;-59
2022/08/16 03:54:27;;;;;;;1999.90;999.90;;;;;;;17.38;100.00;94397.28;5097706;28;20192;-60
2022/08/16 03:56:52;;;;;;;1999.90;999.90;;;;;;;17.39;100.00;94394.06;5097819;28;20248;-61
2022/08/16 03:59:18;;;;;;;1999.90;999.90;;;;;;;17.37;100.00;94390.25;5098067;28;20219;-60
2022/08/16 04:01:43;;;;;;;1999.90;999.90;;;;;;;17.36;100.00;94388.72;5097579;28;20172;-60
2022/08/16 04:04:08;;;;;;;1999.90;999.90;;;;;;;17.36;100.00;94394.22;5098291;28;20202;-60
2022/08/16 04:06:34;;;;;;;1999.90;999.90;;;;;;;17.33;100.00;94384.16;5097907;28;20591;-60
2022/08/16 04:08:59;;;;;;;1999.90;999.90;;;;;;;17.33;100.00;94378.63;5097559;28;20211;-70
2022/08/16 04:11:25;;;;;;;1999.90;999.90;;;;;;;17.34;100.00;94385.69;5097607;28;20207;-61
2022/08/16 04:13:50;;;;;;;1999.90;999.90;;;;;;;17.34;100.00;94377.41;5097610;28;20191;-59
2022/08/16 04:16:16;;;;;;;1999.90;999.90;;;;;;;17.35;100.00;94381.69;5097436;28;20188;-59
2022/08/16 04:18:42;;;;;;;1999.90;999.90;;;;;;;17.31;100.00;94376.34;5097835;28;20196;-59
2022/08/16 04:21:08;;;;;;;1999.90;999.90;;;;;;;17.27;100.00;94361.19;5097601;28;20230;-59
2022/08/16 04:23:33;;;;;;;1999.90;999.90;;;;;;;17.27;100.00;94363.94;5097372;28;20230;-59
2022/08/16 04:25:59;;;;;;;1999.90;999.90;;;;;;;17.27;100.00;94350.94;5097401;28;20190;-59
2022/08/16 04:28:25;;;;;;;1999.90;999.90;;;;;;;17.28;100.00;94355.19;5097455;28;20187;-68
2022/08/16 04:30:50;;;;;;;1999.90;999.90;;;;;;;17.30;100.00;94351.97;5097361;28;20238;-60
2022/08/16 04:33:16;;;;;;;1999.90;999.90;;;;;;;17.30;100.00;94352.72;5097310;28;20199;-60
2022/08/16 04:35:42;;;;;;;1999.90;999.90;;;;;;;17.25;100.00;94361.66;5097922;28;20235;-59
2022/08/16 04:38:07;;;;;;;1999.90;999.90;;;;;;;17.27;100.00;94369.47;5097111;28;20191;-60
2022/08/16 04:40:33;;;;;;;1999.90;999.90;;;;;;;17.26;100.00;94356.91;5114994;28;20267;-59
2022/08/16 04:43:00;;;;;;;1999.90;999.90;;;;;;;17.29;100.00;94356.72;5097167;28;20282;-59
2022/08/16 04:45:26;;;;;;;1999.90;999.90;;;;;;;17.32;100.00;94355.00;5097161;28;20295;-60
2022/08/16 04:47:51;;;;;;;1999.90;999.90;;;;;;;17.41;100.00;94364.00;5097329;28;20226;-59
2022/08/16 04:50:25;;;;;;;1999.90;999.90;;;;;;;17.66;100.00;94363.50;5096981;28;20184;-70
2022/08/16 04:52:52;;;;;;;1999.90;999.90;;;;;;;17.93;100.00;94409.47;5097514;28;20183;-70
2022/08/16 04:55:21;;;;;;;1999.90;999.90;;;;;;;18.27;100.00;94450.28;5096918;28;20206;-69
2022/08/16 04:57:49;;;;;;;1999.90;999.90;;;;;;;18.68;100.00;94496.28;5096937;28;20206;-70
2022/08/16 05:00:18;;;;;;;1999.90;999.90;;;;;;;19.33;100.00;94540.94;5097327;28;20180;-64
2022/08/16 05:02:44;;;;;;;1999.90;999.90;;;;;;;19.60;100.00;94598.00;5096769;28;20179;-68
2022/08/16 05:05:11;;;;;;;1999.90;999.90;;;;;;;19.42;100.00;94610.03;5097156;28;20274;-63
2022/08/16 05:07:37;;;;;;;1999.90;999.90;;;;;;;19.11;100.00;94600.66;5095954;28;20266;-64
2022/08/16 05:10:04;;;;;;;1999.90;999.90;;;;;;;18.85;100.00;94589.41;5096583;28;20249;-62
2022/08/16 05:12:30;;;;;;;1999.90;999.90;;;;;;;18.67;100.00;94572.22;5097013;28;20192;-65
2022/08/16 05:14:56;;;;;;;1999.90;999.90;;;;;;;18.63;100.00;94557.81;5096446;28;20183;-64
2022/08/16 05:17:21;;;;;;;1999.90;999.90;;;;;;;18.69;100.00;94558.69;5097111;28;20195;-64
2022/08/16 05:19:48;;;;;;;1999.90;999.90;;;;;;;18.81;100.00;94563.94;5096971;28;20202;-64
2022/08/16 05:22:14;;;;;;;1999.90;999.90;;;;;;;18.93;100.00;94579.50;5096626;28;20266;-64
2022/08/16 05:24:39;;;;;;;1999.90;999.90;;;;;;;19.08;100.00;94576.72;5096477;28;20276;-59
2022/08/16 05:27:04;;;;;;;1999.90;999.90;;;;;;;19.17;100.00;94598.78;5096468;28;20184;-58
2022/08/16 05:29:30;;;;;;;1999.90;999.90;;;;;;;19.35;100.00;94601.38;5096462;28;20205;-60
2022/08/16 05:31:55;;;;;;;1999.90;999.90;;;;;;;19.46;100.00;94615.41;5096544;28;20215;-58
2022/08/16 05:34:20;;;;;;;1999.90;999.90;;;;;;;19.52;100.00;94627.31;5096923;28;20194;-59
2022/08/16 05:36:48;;;;;;;1999.90;999.90;;;;;;;20.05;100.00;94649.28;5096235;28;20183;-59
2022/08/16 05:39:14;;;;;;;1999.90;999.90;;;;;;;20.60;100.00;94695.22;5096311;28;20208;-58
2022/08/16 05:41:40;;;;;;;1999.90;999.90;;;;;;;20.91;100.00;94712.00;5096203;28;20206;-59
2022/08/16 05:44:05;;;;;;;1999.90;999.90;;;;;;;20.64;100.00;94712.44;5096188;28;20184;-58
2022/08/16 05:46:31;;;;;;;1999.90;999.90;;;;;;;20.43;100.00;94712.91;5096280;28;20278;-60
2022/08/16 05:48:59;;;;;;;1999.90;999.90;;;;;;;20.30;100.00;94699.38;5096292;28;20180;-59
2022/08/16 05:51:25;;;;;;;1999.90;999.90;;;;;;;20.67;100.00;94708.69;5095982;28;20208;-59
2022/08/16 05:53:50;;;;;;;1999.90;999.90;;;;;;;21.76;100.00;94738.25;5096200;28;20371;-60
2022/08/16 05:56:16;;;;;;;1999.90;999.90;;;;;;;23.06;100.00;94782.75;5096123;28;20195;-60
2022/08/16 05:58:41;;;;;;;1999.90;999.90;;;;;;;23.84;100.00;94801.31;5096014;28;20175;-60
2022/08/16 06:01:07;;;;;;;1999.90;999.90;;;;;;;24.43;100.00;94822.22;5096131;28;20176;-70
2022/08/16 06:03:32;;;;;;;1999.90;999.90;;;;;;;25.30;100.00;94831.06;5096531;28;20183;-61
2022/08/16 06:05:58;;;;;;;1999.90;999.90;;;;;;;25.71;100.00;94836.78;5095836;28;20176;-60
2022/08/16 06:08:23;;;;;;;1999.90;999.90;;;;;;;26.36;100.00;94841.28;5095769;28;20211;-61
2022/08/16 06:10:49;;;;;;;1999.90;999.90;;;;;;;26.83;100.00;94845.53;5095719;28;20207;-60
2022/08/16 06:13:14;;;;;;;1999.90;999.90;;;;;;;27.08;96.61;94844.28;5096361;28;20278;-59
2022/08/16 06:15:39;;;;;;;1999.90;999.90;;;;;;;27.64;92.04;94844.50;5095584;28;20190;-60
2022/08/16 06:18:05;;;;;;;1999.90;999.90;;;;;;;27.89;88.81;94841.13;5097730;28;20248;-70
2022/08/16 06:20:30;;;;;;;1999.90;999.90;;;;;;;28.26;84.25;94843.94;5099779;28;20180;-59
2022/08/16 06:22:57;;;;;;;1999.90;999.90;;;;;;;28.86;82.01;94843.56;5099439;28;20190;-60
2022/08/16 06:25:24;;;;;;;1999.90;999.90;;;;;;;29.27;78.79;94843.91;5099358;28;20176;-60
2022/08/16 06:27:50;;;;;;;1999.90;999.90;;;;;;;29.46;76.76;94844.59;5099288;28;20180;-60
2022/08/16 06:30:16;;;;;;;1999.90;999.90;;;;;;;29.94;74.10;94839.28;5099002;28;20297;-60
2022/08/16 06:32:41;;;;;;;1999.90;999.90;;;;;;;30.22;72.73;94842.28;5099484;28;20187;-60
2022/08/16 06:35:07;;;;;;;1999.90;999.90;;;;;;;29.80;72.31;94846.25;5099268;28;20262;-60
2022/08/16 06:37:32;;;;;;;1999.90;999.90;;;;;;;30.36;69.86;94851.47;5099375;28;20187;-59
2022/08/16 06:39:58;;;;;;;1999.90;999.90;;;;;;;30.13;68.93;94853.22;5099088;28;20172;-59
2022/08/16 06:42:23;;;;;;;1999.90;999.90;;;;;;;30.27;67.78;94849.84;5099101;28;20183;-59
2022/08/16 06:44:49;;;;;;;1999.90;999.90;;;;;;;30.40;67.19;94863.16;5098940;28;20172;-58
2022/08/16 06:47:15;;;;;;;1999.90;999.90;;;;;;;30.61;66.24;94855.50;5098972;28;20241;-59
2022/08/16 06:49:41;;;;;;;1999.90;999.90;;;;;;;30.59;63.96;94858.13;5098911;28;20171;-58
2022/08/16 06:52:07;;;;;;;1999.90;999.90;;;;;;;31.20;62.11;94854.59;5098898;28;20207;-59
2022/08/16 06:54:34;;;;;;;1999.90;999.90;;;;;;;30.88;62.02;94857.72;5099239;28;20203;-63
2022/08/16 06:56:59;;;;;;;1999.90;999.90;;;;;;;32.34;55.98;94862.56;5098772;28;20192;-64
2022/08/16 06:59:25;;;;;;;1999.90;999.90;;;;;;;31.84;56.02;94851.91;5098741;28;20180;-61
2022/08/16 07:01:50;;;;;;;1999.90;999.90;;;;;;;32.53;54.79;94858.13;5098881;28;20247;-61
2022/08/16 07:04:17;;;;;;;1999.90;999.90;;;;;;;33.42;49.46;94853.97;5099057;28;20186;-60
2022/08/16 07:06:42;;;;;;;1999.90;999.90;;;;;;;33.81;46.67;94859.03;5098753;28;20184;-61
2022/08/16 07:09:10;;;;;;;1999.90;999.90;;;;;;;32.90;49.77;94860.31;5098672;28;20207;-60
2022/08/16 07:11:36;;;;;;;1999.90;999.90;;;;;;;33.38;49.22;94858.50;5098464;28;20306;-61
2022/08/16 07:14:01;;;;;;;1999.90;999.90;;;;;;;34.74;43.73;94859.69;5098690;28;20203;-60
2022/08/16 07:16:27;;;;;;;1999.90;999.90;;;;;;;34.66;41.08;94861.06;5098471;28;20188;-58
2022/08/16 07:18:52;;;;;;;1999.90;999.90;;;;;;;35.42;40.06;94856.44;5098302;28;20187;-57
2022/08/16 07:21:18;;;;;;;1999.90;999.90;;;;;;;35.31;40.23;94851.22;5099021;28;20187;-59
2022/08/16 07:23:45;;;;;;;1999.90;999.90;;;;;;;35.63;38.13;94851.16;5098934;28;20213;-58
2022/08/16 07:26:16;;;;;;;1999.90;999.90;;;;;;;36.04;36.82;94847.53;5098594;28;20184;-58
2022/08/16 07:28:42;;;;;;;1999.90;999.90;;;;;;;35.87;36.17;94862.50;5098486;28;20191;-60
2022/08/16 07:31:07;;;;;;;1999.90;999.90;;;;;;;34.85;38.26;94850.00;5098365;28;20196;-63
2022/08/16 07:33:36;;;;;;;1999.90;999.90;;;;;;;35.52;36.37;94845.94;5099080;28;20187;-64
2022/08/16 07:36:01;;;;;;;1999.90;999.90;;;;;;;35.27;37.12;94842.31;5098270;28;20205;-60
2022/08/16 07:38:27;;;;;;;1999.90;999.90;;;;;;;36.40;35.65;94844.88;5098021;28;20192;-59
2022/08/16 07:40:53;;;;;;;1999.90;999.90;;;;;;;36.66;33.43;94846.28;5097852;28;20270;-59
2022/08/16 07:43:20;;;;;;;1999.90;999.90;;;;;;;36.79;33.00;94846.69;5098467;28;20241;-59
2022/08/16 07:45:45;;;;;;;1999.90;999.90;;;;;;;36.63;33.40;94845.34;5098434;28;20194;-60
2022/08/16 07:48:11;;;;;;;1999.90;999.90;;;;;;;36.88;32.49;94848.81;5098049;28;20270;-59
2022/08/16 07:50:36;;;;;;;1999.90;999.90;;;;;;;36.00;33.08;94847.19;5098209;28;20242;-65
2022/08/16 07:53:01;;;;;;;1999.90;999.90;;;;;;;36.60;32.89;94841.56;5098147;28;20191;-62
2022/08/16 07:55:27;;;;;;;1999.90;999.90;;;;;;;37.45;31.35;94846.28;5097930;28;20205;-62
2022/08/16 07:57:52;;;;;;;1999.90;999.90;;;;;;;37.71;30.56;94848.34;5098016;28;20205;-62
2022/08/16 08:00:18;;;;;;;1999.90;999.90;;;;;;;36.46;31.76;94845.38;5097641;28;20283;-63
2022/08/16 08:02:45;;;;;;;1999.90;999.90;;;;;;;37.25;32.18;94850.38;5098292;28;20194;-64
2022/08/16 08:05:10;;;;;;;1999.90;999.90;;;;;;;37.99;30.25;94844.81;5098155;28;20176;-64
2022/08/16 08:07:36;;;;;;;1999.90;999.90;;;;;;;37.72;30.19;94849.84;5097629;28;20183;-67
2022/08/16 08:10:04;;;;;;;1999.90;999.90;;;;;;;37.69;29.78;94862.44;5097585;28;20293;-66
2022/08/16 08:12:29;;;;;;;1999.90;999.90;;;;;;;36.76;31.29;94856.41;5097622;28;20223;-60
2022/08/16 08:14:55;;;;;;;1999.90;999.90;;;;;;;35.80;32.53;94854.06;5097962;28;20268;-59
2022/08/16 08:17:21;;;;;;;1999.90;999.90;;;;;;;36.72;31.33;94853.22;5097932;28;20184;-59
2022/08/16 08:19:47;;;;;;;1999.90;999.90;;;;;;;37.16;30.94;94851.13;5097391;28;20183;-62
2022/08/16 08:22:13;;;;;;;1999.90;999.90;;;;;;;36.40;31.51;94854.19;5097717;28;20187;-58
2022/08/16 08:24:39;;;;;;;1999.90;999.90;;;;;;;36.27;32.26;94859.47;5097208;28;20180;-59
2022/08/16 08:27:07;;;;;;;1999.90;999.90;;;;;;;36.74;30.74;94856.22;5097176;28;20184;-57
2022/08/16 08:29:34;;;;;;;1999.90;999.90;;;;;;;37.10;30.69;94864.84;5097404;28;20223;-56
2022/08/16 08:32:00;;;;;;;1999.90;999.90;;;;;;;38.96;28.88;94853.53;5097766;28;20210;-56
2022/08/16 08:34:26;;;;;;;1999.90;999.90;;;;;;;39.25;27.69;94857.06;5097417;28;20262;-56
2022/08/16 08:36:52;;;;;;;1999.90;999.90;;;;;;;40.87;25.48;94863.94;5097479;28;20183;-55
2022/08/16 08:39:18;;;;;;;1999.90;999.90;;;;;;;41.13;25.04;94857.06;5097634;28;20199;-56
2022/08/16 08:41:46;;;;;;;1999.90;999.90;;;;;;;41.13;25.04;94857.06;5095841;28;20188;-56
2022/08/16 08:44:12;;;;;;;1999.90;999.90;;;;;;;39.23;26.12;94868.38;5096984;28;20214;-56
2022/08/16 08:46:38;;;;;;;1999.90;999.90;;;;;;;38.95;26.84;94863.47;5096992;28;20175;-65
2022/08/16 08:49:06;;;;;;;1999.90;999.90;;;;;;;37.73;28.65;94856.31;5114413;28;20248;-55
2022/08/16 08:51:32;;;;;;;1999.90;999.90;;;;;;;37.79;29.24;94848.22;5097181;28;20231;-57
2022/08/16 08:53:58;;;;;;;1999.90;999.90;;;;;;;38.49;28.71;94856.44;5096988;28;20191;-58
2022/08/16 08:56:23;;;;;;;1999.90;999.90;;;;;;;39.51;26.75;94860.31;5096846;28;20232;-57
2022/08/16 08:58:48;;;;;;;1999.90;999.90;;;;;;;39.55;26.51;94861.34;5097643;28;20225;-57
2022/08/16 09:01:18;;;;;;;1999.90;999.90;;;;;;;37.75;28.38;94854.34;5096613;28;20191;-58
2022/08/16 09:03:43;;;;;;;1999.90;999.90;;;;;;;36.99;29.54;94856.84;5096072;28;20186;-62
2022/08/16 09:06:08;;;;;;;1999.90;999.90;;;;;;;37.20;29.95;94845.72;5097231;28;20184;-66
2022/08/16 09:08:34;;;;;;;1999.90;999.90;;;;;;;36.86;30.38;94848.69;5096484;28;20195;-58
2022/08/16 09:11:00;;;;;;;1999.90;999.90;;;;;;;37.20;28.96;94848.56;5096475;28;20207;-57
2022/08/16 09:13:25;;;;;;;1999.90;999.90;;;;;;;36.55;30.49;94850.38;5096726;28;20182;-57
2022/08/16 09:15:54;;;;;;;1999.90;999.90;;;;;;;36.68;31.14;94852.88;5096618;28;20183;-58
2022/08/16 09:18:21;;;;;;;1999.90;999.90;;;;;;;35.81;31.89;94842.09;5096800;28;20171;-57
2022/08/16 09:20:47;;;;;;;1999.90;999.90;;;;;;;36.76;30.80;94845.00;5096585;28;20183;-58
2022/08/16 09:23:12;;;;;;;1999.90;999.90;;;;;;;37.30;30.50;94840.06;5096326;28;20268;-56
2022/08/16 09:25:38;;;;;;;1999.90;999.90;;;;;;;37.54;29.41;94841.97;5096882;28;20180;-59
2022/08/16 09:28:04;;;;;;;1999.90;999.90;;;;;;;37.62;29.41;94840.53;5096136;28;20289;-60
2022/08/16 09:30:33;;;;;;;1999.90;999.90;;;;;;;38.33;29.02;94838.84;5096288;28;20195;-59
2022/08/16 09:32:58;;;;;;;1999.90;999.90;;;;;;;38.99;27.48;94840.91;5114720;28;20180;-58
2022/08/16 09:35:25;;;;;;;1999.90;999.90;;;;;;;39.75;27.16;94839.13;5096559;28;20190;-58
2022/08/16 09:37:50;;;;;;;1999.90;999.90;;;;;;;40.50;25.43;94843.59;5095946;28;20195;-59
2022/08/16 09:40:17;;;;;;;1999.90;999.90;;;;;;;40.13;26.84;94836.78;5096392;28;20188;-58
2022/08/16 09:42:42;;;;;;;1999.90;999.90;;;;;;;39.47;26.76;94837.16;5096505;28;20183;-53
2022/08/16 09:45:08;;;;;;;1999.90;999.90;;;;;;;39.26;27.04;94841.41;5096362;28;20176;-58
2022/08/16 09:47:38;;;;;;;1999.90;999.90;;;;;;;38.02;28.70;94845.69;5096968;28;20198;-60
2022/08/16 09:50:06;;;;;;;1999.90;999.90;;;;;;;38.87;27.82;94833.53;5096161;28;20184;-60
2022/08/16 09:52:31;;;;;;;1999.90;999.90;;;;;;;38.34;27.21;94834.63;5095651;28;20211;-58
2022/08/16 09:54:56;;;;;;;1999.90;999.90;;;;;;;38.30;27.93;94834.31;5112988;28;20180;-58
2022/08/16 09:57:22;;;;;;;1999.90;999.90;;;;;;;37.91;28.18;94837.72;5096063;28;20267;-58
2022/08/16 09:59:47;;;;;;;1999.90;999.90;;;;;;;37.97;28.28;94830.38;5095900;28;20194;-71
2022/08/16 10:02:12;;;;;;;1999.90;999.90;;;;;;;38.07;27.61;94839.72;5096209;28;20179;-60
2022/08/16 10:04:38;;;;;;;1999.90;999.90;;;;;;;37.22;28.56;94828.03;5096007;28;20215;-61
2022/08/16 10:07:04;;;;;;;1999.90;999.90;;;;;;;36.86;28.75;94827.97;5095857;28;20183;-60
2022/08/16 10:09:29;;;;;;;1999.90;999.90;;;;;;;36.49;29.44;94824.28;5095932;28;20215;-62
2022/08/16 10:14:39;;;;;;;1999.90;999.90;;;;;;;36.14;29.28;94825.63;5114441;28;20186;-63
2022/08/16 10:17:05;;;;;;;1999.90;999.90;;;;;;;35.98;29.48;94824.28;5095750;28;20180;-62
2022/08/16 10:19:31;;;;;;;1999.90;999.90;;;;;;;35.97;29.27;94819.94;5113792;28;20179;-60
2022/08/16 10:21:57;;;;;;;1999.90;999.90;;;;;;;35.96;29.09;94824.88;5095402;28;20187;-69
2022/08/16 10:24:23;;;;;;;1999.90;999.90;;;;;;;34.67;31.60;94822.84;5113396;28;20262;-74
2022/08/16 10:26:48;;;;;;;1999.90;999.90;;;;;;;35.47;30.74;94816.41;5095465;28;20184;-73
2022/08/16 10:29:14;;;;;;;1999.90;999.90;;;;;;;34.74;31.41;94822.03;5095453;28;20186;-74
2022/08/16 10:31:41;;;;;;;1999.90;999.90;;;;;;;34.42;32.11;94819.19;5095332;28;20231;-73
2022/08/16 10:34:07;;;;;;;1999.90;999.90;;;;;;;33.12;33.60;94822.03;5095853;28;20202;-75
2022/08/16 10:36:32;;;;;;;1999.90;999.90;;;;;;;33.79;33.92;94821.97;5095232;28;20196;-58
2022/08/16 10:38:58;;;;;;;1999.90;999.90;;;;;;;32.71;35.42;94817.44;5095554;28;20184;-71
2022/08/16 10:41:23;;;;;;;1999.90;999.90;;;;;;;31.56;38.03;94820.81;5095343;28;20191;-73
2022/08/16 10:43:49;;;;;;;1999.90;999.90;;;;;;;31.11;38.28;94815.59;5095218;28;20195;-72
2022/08/16 10:46:15;;;;;;;1999.90;999.90;;;;;;;31.75;36.88;94824.91;5095251;28;20187;-72
2022/08/16 10:48:42;;;;;;;1999.90;999.90;;;;;;;33.63;33.76;94814.84;5095683;28;20180;-70